Time;durP1;ratioP1;P1;durP2;ratioP2;P2;SDS_P1;SDS_P2;PMS_P1;PMS_P2;Temp;Humidity;BMP_temperature;BMP_pressure;BME280_temperature;BME280_humidity;BME280_pressure;Samples;Min_cycle;Max_cycle;Signal;HPM_P1;HPM_P2
2024/03/21 05:32:27;;;;;;;0.10;0.10;;;9.70;85.00;;;;;;5005158;23;20129;-81
2024/03/21 05:34:52;;;;;;;0.10;0.10;;;9.70;84.50;;;;;;4999636;28;20069;-83
2024/03/21 05:37:18;;;;;;;0.10;0.10;;;9.80;84.80;;;;;;4998983;28;20464;-83
2024/03/21 05:39:46;;;;;;;0.10;0.10;;;9.80;84.50;;;;;;4980316;28;20061;-83
2024/03/21 05:42:14;;;;;;;0.10;0.10;;;9.80;84.40;;;;;;5009007;28;20058;-83
2024/03/21 05:44:40;;;;;;;0.10;0.10;;;9.80;84.70;;;;;;4980151;28;20394;-83
2024/03/21 05:47:20;;;;;;;0.10;0.10;;;9.80;84.60;;;;;;4995075;28;20027;-84
2024/03/21 05:49:45;;;;;;;0.10;0.10;;;9.80;84.70;;;;;;4998554;28;20033;-83
2024/03/21 05:52:11;;;;;;;0.10;0.10;;;9.80;84.50;;;;;;4997789;28;20486;-84
2024/03/21 05:54:36;;;;;;;0.10;0.10;;;9.80;84.50;;;;;;4999588;28;20084;-84
2024/03/21 05:57:03;;;;;;;0.10;0.10;;;9.80;84.50;;;;;;4999391;28;20500;-87
2024/03/21 05:59:28;;;;;;;0.10;0.10;;;9.80;84.80;;;;;;4998349;28;20476;-84
2024/03/21 06:01:54;;;;;;;0.10;0.10;;;9.80;85.00;;;;;;4996951;28;20460;-86
2024/03/21 06:04:21;;;;;;;0.10;0.10;;;9.80;85.00;;;;;;4999240;28;20022;-88
2024/03/21 06:06:46;;;;;;;0.10;0.10;;;9.80;85.10;;;;;;4997592;28;20029;-86
2024/03/21 06:09:12;;;;;;;0.10;0.10;;;9.90;85.10;;;;;;4994412;28;20027;-87
2024/03/21 06:11:38;;;;;;;0.10;0.10;;;9.90;85.10;;;;;;4980098;28;20034;-82
2024/03/21 06:14:04;;;;;;;0.10;0.10;;;10.00;85.30;;;;;;4985780;28;20034;-83
2024/03/21 06:16:30;;;;;;;0.10;0.10;;;10.00;85.00;;;;;;4986649;28;20042;-85
2024/03/21 06:18:55;;;;;;;0.10;0.10;;;10.10;85.10;;;;;;4985075;28;20563;-84
2024/03/21 06:21:21;;;;;;;0.03;0.03;;;10.10;84.80;;;;;;4996294;28;20035;-79
2024/03/21 06:23:47;;;;;;;0.10;0.10;;;10.20;84.60;;;;;;4977970;28;20056;-87
2024/03/21 06:26:12;;;;;;;0.10;0.10;;;10.20;84.50;;;;;;4979295;28;20041;-86
2024/03/21 06:28:38;;;;;;;0.10;0.10;;;10.20;84.60;;;;;;4979274;28;20109;-85
2024/03/21 06:31:04;;;;;;;0.10;0.10;;;10.10;84.50;;;;;;4981361;28;20047;-87
2024/03/21 06:33:29;;;;;;;0.10;0.10;;;10.10;85.10;;;;;;4985633;28;20113;-87
2024/03/21 06:35:55;;;;;;;0.10;0.10;;;10.20;85.10;;;;;;4993807;28;20082;-87
2024/03/21 06:38:21;;;;;;;0.10;0.10;;;10.20;84.90;;;;;;4977792;28;20034;-87
2024/03/21 06:40:47;;;;;;;0.10;0.10;;;10.30;84.70;;;;;;4981486;28;20033;-87
2024/03/21 06:43:13;;;;;;;0.00;0.00;;;10.30;84.90;;;;;;4978115;28;20474;-86
2024/03/21 06:45:38;;;;;;;0.10;0.10;;;10.30;84.70;;;;;;4978849;28;20023;-86
2024/03/21 06:48:04;;;;;;;0.10;0.10;;;10.30;84.90;;;;;;4994314;28;20035;-85
2024/03/21 06:50:30;;;;;;;0.10;0.10;;;10.50;84.70;;;;;;4989674;28;20027;-88
2024/03/21 06:52:57;;;;;;;0.10;0.10;;;10.50;84.40;;;;;;4993164;28;20094;-88
2024/03/21 06:55:23;;;;;;;0.10;0.10;;;10.50;84.50;;;;;;4993481;28;20027;-87
2024/03/21 06:57:56;;;;;;;0.10;0.10;;;10.60;84.30;;;;;;4994204;28;20122;-87
2024/03/21 07:00:22;;;;;;;;;;;10.60;84.30;;;;;;4982250;28;20030;-87
2024/03/21 07:02:48;;;;;;;0.10;0.10;;;10.70;84.40;;;;;;4992921;28;19909;-87
2024/03/21 07:05:14;;;;;;;0.10;0.10;;;10.70;84.20;;;;;;4997255;28;20026;-87
2024/03/21 07:07:39;;;;;;;0.10;0.10;;;10.80;84.10;;;;;;4997646;28;20750;-87
2024/03/21 07:10:06;;;;;;;0.10;0.10;;;10.90;83.90;;;;;;4996260;28;20122;-87
2024/03/21 07:12:31;;;;;;;0.10;0.10;;;11.00;83.70;;;;;;4998026;28;20034;-87
2024/03/21 07:14:57;;;;;;;0.10;0.10;;;11.00;83.40;;;;;;4997126;28;20038;-88
2024/03/21 07:17:23;;;;;;;0.10;0.10;;;11.10;83.50;;;;;;4998182;28;20038;-88
2024/03/21 07:19:49;;;;;;;0.10;0.10;;;11.20;83.40;;;;;;4994857;28;20046;-87
2024/03/21 07:22:14;;;;;;;0.10;0.10;;;11.20;83.40;;;;;;4997913;28;20018;-87
2024/03/21 07:24:40;;;;;;;0.10;0.10;;;11.20;83.40;;;;;;4994354;28;20209;-88
2024/03/21 07:27:06;;;;;;;0.10;0.10;;;11.30;82.90;;;;;;4978740;28;20027;-88
2024/03/21 07:29:31;;;;;;;0.10;0.10;;;11.30;83.30;;;;;;4978216;28;20102;-88
2024/03/21 07:31:58;;;;;;;0.10;0.10;;;11.30;82.90;;;;;;4996215;28;20104;-88
2024/03/21 07:34:24;;;;;;;0.10;0.10;;;11.40;82.90;;;;;;4990987;28;20034;-87
2024/03/21 07:36:50;;;;;;;0.10;0.10;;;11.50;82.60;;;;;;4996199;28;20068;-88
2024/03/21 07:39:20;;;;;;;0.10;0.10;;;11.60;82.30;;;;;;4996390;28;20080;-88
2024/03/21 07:41:47;;;;;;;0.10;0.10;;;11.70;82.10;;;;;;4994288;28;20500;-87
2024/03/21 07:44:13;;;;;;;0.10;0.10;;;11.70;82.00;;;;;;4993441;28;20026;-88
2024/03/21 07:46:38;;;;;;;0.10;0.10;;;11.70;82.40;;;;;;4992608;28;20057;-88
2024/03/21 07:49:04;;;;;;;0.10;0.10;;;11.80;82.20;;;;;;4977967;28;20498;-87
2024/03/21 07:51:30;;;;;;;0.10;0.10;;;12.00;82.00;;;;;;4978142;28;20077;-88
2024/03/21 07:53:57;;;;;;;0.10;0.10;;;12.00;81.50;;;;;;4978125;28;20113;-89
2024/03/21 07:56:24;;;;;;;0.10;0.10;;;11.90;81.30;;;;;;4995495;28;20022;-87
2024/03/21 07:58:49;;;;;;;0.10;0.10;;;11.90;81.60;;;;;;4997320;28;20034;-88
2024/03/21 08:01:15;;;;;;;0.10;0.10;;;11.90;81.70;;;;;;4986637;28;20088;-87
2024/03/21 08:03:40;;;;;;;0.10;0.10;;;12.00;81.70;;;;;;4997074;28;20502;-87
2024/03/21 08:06:06;;;;;;;0.10;0.10;;;12.10;81.90;;;;;;5012936;28;20481;-88
2024/03/21 08:08:32;;;;;;;0.10;0.10;;;12.10;81.60;;;;;;4996186;28;20478;-87
2024/03/21 08:10:59;;;;;;;0.10;0.10;;;12.20;81.80;;;;;;4995562;28;20057;-88
2024/03/21 08:13:24;;;;;;;0.10;0.10;;;12.40;81.40;;;;;;4997510;28;20543;-88
2024/03/21 08:15:51;;;;;;;0.10;0.10;;;12.50;81.10;;;;;;4997243;28;20048;-87
2024/03/21 08:18:17;;;;;;;0.10;0.10;;;12.60;81.20;;;;;;4986798;28;20035;-88
2024/03/21 08:20:45;;;;;;;0.20;0.20;;;12.50;81.00;;;;;;4976620;28;20022;-88
2024/03/21 08:23:12;;;;;;;0.10;0.10;;;12.70;81.20;;;;;;4976190;28;20061;-88
2024/03/21 08:25:38;;;;;;;0.10;0.10;;;12.90;80.80;;;;;;4978133;28;20019;-87
2024/03/21 08:28:04;;;;;;;0.10;0.10;;;13.00;80.20;;;;;;4992816;28;20038;-87
2024/03/21 08:30:30;;;;;;;0.10;0.10;;;13.10;80.20;;;;;;4977215;28;20117;-87
2024/03/21 08:32:55;;;;;;;0.10;0.10;;;13.30;80.10;;;;;;4993799;28;20597;-87
2024/03/21 08:35:21;;;;;;;0.10;0.10;;;13.40;79.50;;;;;;4985994;28;20031;-87
2024/03/21 08:37:46;;;;;;;0.10;0.10;;;13.50;79.40;;;;;;4977301;28;20094;-87
2024/03/21 08:40:13;;;;;;;0.10;0.10;;;13.50;79.40;;;;;;4982767;28;20034;-87
2024/03/21 08:42:40;;;;;;;0.10;0.10;;;13.50;79.50;;;;;;4997168;28;20477;-86
2024/03/21 08:45:09;;;;;;;0.10;0.10;;;13.40;80.00;;;;;;4985039;28;20106;-86
2024/03/21 08:47:36;;;;;;;0.10;0.10;;;13.50;79.50;;;;;;4976342;28;20034;-86
2024/03/21 08:50:02;;;;;;;0.10;0.10;;;13.50;79.90;;;;;;4995989;28;20058;-87
2024/03/21 08:52:28;;;;;;;0.10;0.10;;;13.70;79.50;;;;;;4999834;28;20026;-87
2024/03/21 08:54:53;;;;;;;0.10;0.10;;;13.70;79.20;;;;;;5000565;28;20045;-87
2024/03/21 08:57:19;;;;;;;0.10;0.10;;;13.70;79.50;;;;;;4986963;28;20097;-87
2024/03/21 08:59:45;;;;;;;0.10;0.10;;;13.80;79.10;;;;;;4981352;28;20143;-87
2024/03/21 09:02:13;;;;;;;0.10;0.10;;;13.80;79.60;;;;;;4986702;28;20043;-88
2024/03/21 09:04:38;;;;;;;0.10;0.10;;;13.80;79.40;;;;;;4981383;28;20033;-87
2024/03/21 09:07:05;;;;;;;0.10;0.10;;;13.90;79.20;;;;;;4981186;28;20023;-86
2024/03/21 09:09:37;;;;;;;0.10;0.10;;;14.00;79.50;;;;;;5011087;28;20019;-87
2024/03/21 09:12:06;;;;;;;0.10;0.10;;;14.40;78.20;;;;;;4996342;28;20081;-87
2024/03/21 09:14:32;;;;;;;0.10;0.10;;;14.50;78.80;;;;;;4996064;28;20027;-87
2024/03/21 09:16:58;;;;;;;0.10;0.10;;;14.60;78.30;;;;;;4988136;28;20045;-87
2024/03/21 09:19:24;;;;;;;0.20;0.20;;;14.70;77.90;;;;;;5000419;28;20030;-87
2024/03/21 09:21:50;;;;;;;0.20;0.20;;;15.20;77.40;;;;;;5000472;28;20034;-87
2024/03/21 09:24:16;;;;;;;0.30;0.30;;;15.60;76.10;;;;;;4996914;28;20027;-87
2024/03/21 09:26:42;;;;;;;0.32;0.32;;;16.20;74.70;;;;;;5000295;28;20397;-87
2024/03/21 09:29:08;;;;;;;0.20;0.20;;;16.80;73.60;;;;;;4999164;28;20027;-88
2024/03/21 09:31:34;;;;;;;0.20;0.20;;;17.10;71.90;;;;;;4997474;28;20535;-88
2024/03/21 09:34:00;;;;;;;0.20;0.20;;;16.80;71.70;;;;;;4998934;28;20030;-87
2024/03/21 09:36:26;;;;;;;0.20;0.20;;;16.90;71.40;;;;;;4989889;28;20046;-87
2024/03/21 09:38:53;;;;;;;0.10;0.10;;;16.80;71.50;;;;;;4980372;28;20038;-88
2024/03/21 09:41:18;;;;;;;1.02;1.02;;;17.00;71.40;;;;;;5006712;28;20026;-88
2024/03/21 09:43:44;;;;;;;0.30;0.30;;;17.80;70.30;;;;;;4979297;28;20126;-87
2024/03/21 09:46:15;;;;;;;1.10;1.10;;;18.30;68.00;;;;;;4995274;28;20034;-89
2024/03/21 09:48:42;;;;;;;0.93;0.93;;;19.30;66.60;;;;;;4986532;28;20022;-88
2024/03/21 09:51:21;;;;;;;0.90;0.90;;;20.30;63.60;;;;;;4997981;28;20512;-88
2024/03/21 09:53:48;;;;;;;1.00;1.00;;;21.00;61.00;;;;;;4999740;28;20027;-88
2024/03/21 09:56:18;;;;;;;0.50;0.50;;;21.30;60.30;;;;;;4988085;28;20031;-88
2024/03/21 09:58:45;;;;;;;0.10;0.10;;;21.70;58.90;;;;;;4978507;28;20112;-87
2024/03/21 10:01:22;;;;;;;0.10;0.10;;;20.90;60.00;;;;;;4982261;28;20157;-87
2024/03/21 10:03:56;;;;;;;0.10;0.10;;;20.20;61.30;;;;;;4998377;28;20389;-88
2024/03/21 10:06:23;;;;;;;0.10;0.10;;;19.50;62.30;;;;;;4983137;28;20022;-87
2024/03/21 10:08:50;;;;;;;0.40;0.40;;;19.30;63.80;;;;;;4995488;28;20023;-87
2024/03/21 10:11:16;;;;;;;0.30;0.30;;;19.60;63.20;;;;;;4994858;28;20027;-87
2024/03/21 10:13:42;;;;;;;0.20;0.20;;;19.60;62.90;;;;;;4979967;28;20073;-87
2024/03/21 10:16:12;;;;;;;0.20;0.20;;;19.50;63.10;;;;;;4980060;28;20047;-88
2024/03/21 10:18:44;;;;;;;0.40;0.40;;;19.40;63.00;;;;;;4979839;28;20030;-87
2024/03/21 10:21:15;;;;;;;0.10;0.10;;;19.50;63.50;;;;;;4978401;28;20057;-87
2024/03/21 10:23:41;;;;;;;0.10;0.10;;;19.30;63.70;;;;;;4979854;28;20035;-86
2024/03/21 10:26:17;;;;;;;0.10;0.10;;;19.40;64.40;;;;;;4980123;28;20050;-87
2024/03/21 10:28:46;;;;;;;0.10;0.10;;;19.40;65.00;;;;;;4979920;28;20027;-87
2024/03/21 10:31:15;;;;;;;0.10;0.10;;;19.30;65.30;;;;;;4996802;28;20153;-88
2024/03/21 10:33:44;;;;;;;0.10;0.10;;;19.20;64.60;;;;;;4997329;28;20026;-88
2024/03/21 10:36:11;;;;;;;0.10;0.10;;;19.00;64.90;;;;;;4998410;28;20030;-87
2024/03/21 10:38:37;;;;;;;0.10;0.10;;;18.80;66.20;;;;;;4997715;28;20037;-86
2024/03/21 10:41:22;;;;;;;0.10;0.10;;;18.80;65.70;;;;;;5013943;28;20432;-88
2024/03/21 10:43:57;;;;;;;0.10;0.10;;;18.60;66.10;;;;;;4997575;28;20022;-86
2024/03/21 10:46:23;;;;;;;0.10;0.10;;;18.40;66.50;;;;;;4986655;28;20026;-87
2024/03/21 10:48:49;;;;;;;0.10;0.10;;;18.20;67.10;;;;;;4979231;28;20110;-87
2024/03/21 10:51:18;;;;;;;0.10;0.10;;;18.00;68.00;;;;;;4994166;28;20047;-87
2024/03/21 10:54:01;;;;;;;0.10;0.10;;;18.00;68.20;;;;;;4994366;28;20512;-87
2024/03/21 10:56:37;;;;;;;0.10;0.10;;;17.80;68.70;;;;;;4994212;28;20026;-87
2024/03/21 10:59:03;;;;;;;0.10;0.10;;;17.70;69.10;;;;;;4994193;28;20084;-87
2024/03/21 11:01:40;;;;;;;0.10;0.10;;;17.60;69.50;;;;;;4983451;28;20033;-87
2024/03/21 11:04:09;;;;;;;0.10;0.10;;;17.50;69.80;;;;;;4996734;28;20058;-87
2024/03/21 11:06:41;;;;;;;0.10;0.10;;;17.40;69.60;;;;;;4978806;28;20046;-86
2024/03/21 11:09:07;;;;;;;0.10;0.10;;;17.40;70.50;;;;;;4994707;28;20548;-86
2024/03/21 11:11:33;;;;;;;0.10;0.10;;;17.40;70.60;;;;;;4978655;28;20023;-85
2024/03/21 11:14:09;;;;;;;0.10;0.10;;;17.40;71.00;;;;;;4990061;28;20561;-83
2024/03/21 11:16:40;;;;;;;0.10;0.10;;;17.40;70.90;;;;;;4993778;28;20048;-85
2024/03/21 11:19:06;;;;;;;0.10;0.10;;;17.20;70.50;;;;;;4997678;28;20113;-86
2024/03/21 11:21:32;;;;;;;0.10;0.10;;;17.30;70.70;;;;;;5012825;28;20033;-86
2024/03/21 11:23:57;;;;;;;0.10;0.10;;;17.30;70.50;;;;;;4984729;28;20030;-86
2024/03/21 11:26:23;;;;;;;0.10;0.10;;;17.50;71.20;;;;;;4978694;28;20031;-87
2024/03/21 11:28:50;;;;;;;0.10;0.10;;;17.60;70.50;;;;;;4978936;28;20095;-86
2024/03/21 11:31:24;;;;;;;0.10;0.10;;;17.70;70.10;;;;;;4979817;28;20112;-85
2024/03/21 11:33:51;;;;;;;0.10;0.10;;;17.70;70.70;;;;;;4997818;28;20034;-87
2024/03/21 11:36:18;;;;;;;0.10;0.10;;;17.70;70.30;;;;;;4997842;28;20027;-85
2024/03/21 11:38:45;;;;;;;0.10;0.10;;;17.60;70.70;;;;;;4982673;28;20038;-82
2024/03/21 11:41:21;;;;;;;0.05;0.05;;;17.60;70.70;;;;;;4991134;28;20034;-79
2024/03/21 11:43:51;;;;;;;0.10;0.10;;;17.50;70.60;;;;;;4997870;28;20089;-87
2024/03/21 11:46:19;;;;;;;0.10;0.10;;;17.60;71.10;;;;;;4997766;28;20053;-86
2024/03/21 11:49:09;;;;;;;0.10;0.10;;;17.60;70.50;;;;;;4980243;28;20086;-83
2024/03/21 11:51:36;;;;;;;0.10;0.10;;;17.70;70.70;;;;;;4977066;28;20030;-82
2024/03/21 11:54:06;;;;;;;0.10;0.10;;;17.80;70.40;;;;;;4993306;28;20038;-87
2024/03/21 11:57:04;;;;;;;0.10;0.10;;;17.80;70.50;;;;;;5004064;28;20029;-86
2024/03/21 11:59:40;;;;;;;0.10;0.10;;;18.00;70.20;;;;;;4985654;28;20070;-87
2024/03/21 12:02:12;;;;;;;0.10;0.10;;;18.10;69.80;;;;;;4995999;28;20141;-79
2024/03/21 12:04:38;;;;;;;0.10;0.10;;;18.20;69.70;;;;;;4995596;28;20026;-83
2024/03/21 12:07:07;;;;;;;0.05;0.05;;;18.20;69.00;;;;;;4995998;28;20057;-80
2024/03/21 12:09:33;;;;;;;0.10;0.10;;;18.20;69.40;;;;;;4977563;28;20039;-78
2024/03/21 12:11:59;;;;;;;0.10;0.10;;;18.20;69.00;;;;;;4980158;28;20084;-79
2024/03/21 12:14:24;;;;;;;0.10;0.10;;;18.10;69.00;;;;;;5004952;28;20052;-74
2024/03/21 12:16:50;;;;;;;0.10;0.10;;;18.10;69.20;;;;;;4985632;28;20026;-84
2024/03/21 12:19:19;;;;;;;0.10;0.10;;;18.10;68.90;;;;;;4985889;28;20125;-83
2024/03/21 12:21:44;;;;;;;0.10;0.10;;;18.10;69.10;;;;;;4986691;28;20396;-80
2024/03/21 12:24:22;;;;;;;0.10;0.10;;;18.10;69.30;;;;;;4988832;28;20030;-82
2024/03/21 12:27:05;;;;;;;0.10;0.10;;;18.20;69.90;;;;;;5011226;28;20044;-82
2024/03/21 12:29:31;;;;;;;0.10;0.10;;;18.30;69.00;;;;;;4983344;28;20031;-80
2024/03/21 12:32:08;;;;;;;0.10;0.10;;;18.30;68.40;;;;;;4987067;28;20616;-84
2024/03/21 12:34:33;;;;;;;0.05;0.05;;;18.40;68.40;;;;;;4987272;28;20026;-80
2024/03/21 12:36:59;;;;;;;0.10;0.10;;;18.50;67.90;;;;;;5010028;28;20037;-83
2024/03/21 12:39:25;;;;;;;0.10;0.10;;;18.50;68.00;;;;;;4991426;28;20497;-82
2024/03/21 12:41:52;;;;;;;0.10;0.10;;;18.60;67.50;;;;;;4995407;28;20114;-81
2024/03/21 12:44:18;;;;;;;0.00;0.00;;;18.60;66.90;;;;;;4995675;28;20030;-80
2024/03/21 12:46:43;;;;;;;0.10;0.10;;;18.70;66.80;;;;;;4991644;28;20115;-80
2024/03/21 12:49:12;;;;;;;0.05;0.05;;;18.70;66.50;;;;;;4985409;28;20066;-79
2024/03/21 12:51:37;;;;;;;0.10;0.10;;;18.80;66.10;;;;;;4987337;28;20102;-80
2024/03/21 12:54:03;;;;;;;0.10;0.10;;;18.70;66.40;;;;;;4987147;28;20070;-81
2024/03/21 12:56:28;;;;;;;0.10;0.10;;;18.80;66.50;;;;;;4986582;28;20027;-77
2024/03/21 12:58:54;;;;;;;0.10;0.10;;;18.70;66.10;;;;;;4983539;28;20070;-79
2024/03/21 13:01:20;;;;;;;0.10;0.10;;;18.70;66.50;;;;;;4985956;28;20030;-77
2024/03/21 13:03:45;;;;;;;0.00;0.00;;;18.80;67.30;;;;;;4988402;28;20383;-78
2024/03/21 13:06:11;;;;;;;0.10;0.10;;;18.80;66.30;;;;;;4987073;28;20018;-78
2024/03/21 13:08:37;;;;;;;0.00;0.00;;;18.80;66.90;;;;;;4987141;28;20033;-79
2024/03/21 13:11:03;;;;;;;0.10;0.10;;;18.70;66.50;;;;;;4984624;28;20030;-79
2024/03/21 13:13:28;;;;;;;0.10;0.10;;;18.80;67.10;;;;;;4985491;28;20027;-79
2024/03/21 13:15:55;;;;;;;0.10;0.10;;;18.80;66.50;;;;;;4984956;28;20030;-79
2024/03/21 13:18:21;;;;;;;0.10;0.10;;;18.90;66.60;;;;;;4981439;28;20121;-79
2024/03/21 13:20:46;;;;;;;0.10;0.10;;;18.90;66.00;;;;;;4985664;28;20018;-79
2024/03/21 13:23:12;;;;;;;0.10;0.10;;;18.80;65.90;;;;;;4983204;28;20027;-79
2024/03/21 13:25:38;;;;;;;0.10;0.10;;;18.90;66.20;;;;;;4984743;28;20035;-78
2024/03/21 13:28:06;;;;;;;0.10;0.10;;;18.90;65.70;;;;;;4985872;28;20490;-79
2024/03/21 13:30:32;;;;;;;0.00;0.00;;;18.90;66.20;;;;;;5010766;28;20042;-78
2024/03/21 13:32:58;;;;;;;0.10;0.10;;;19.00;66.20;;;;;;5007987;28;20121;-78
2024/03/21 13:35:25;;;;;;;0.10;0.10;;;19.00;65.40;;;;;;4988158;28;20060;-80
2024/03/21 13:37:50;;;;;;;0.10;0.10;;;19.00;65.70;;;;;;4985014;28;20071;-80
2024/03/21 13:40:17;;;;;;;0.08;0.08;;;19.00;65.60;;;;;;4992752;28;20493;-78
2024/03/21 13:42:42;;;;;;;0.10;0.10;;;19.10;65.40;;;;;;4995108;28;20027;-79
2024/03/21 13:45:09;;;;;;;0.10;0.10;;;19.10;65.90;;;;;;4991231;28;20027;-79
2024/03/21 13:47:39;;;;;;;0.10;0.10;;;19.30;65.40;;;;;;4990972;28;20033;-80
2024/03/21 13:50:10;;;;;;;0.10;0.10;;;19.40;64.50;;;;;;4992279;28;20050;-79
2024/03/21 13:52:36;;;;;;;0.08;0.08;;;19.50;65.00;;;;;;4988477;28;20033;-80
2024/03/21 13:55:01;;;;;;;0.10;0.10;;;19.60;64.30;;;;;;4989327;28;20901;-80
2024/03/21 13:57:34;;;;;;;0.00;0.00;;;19.70;63.60;;;;;;4990124;28;20110;-79
2024/03/21 14:00:00;;;;;;;0.10;0.10;;;19.60;63.50;;;;;;4989729;28;20505;-82
2024/03/21 14:02:30;;;;;;;0.10;0.10;;;19.30;63.50;;;;;;4992423;28;20030;-88
2024/03/21 14:04:56;;;;;;;0.00;0.00;;;19.20;64.30;;;;;;4990724;28;20026;-87
2024/03/21 14:07:22;;;;;;;0.10;0.10;;;19.20;64.50;;;;;;4999729;28;20114;-85
2024/03/21 14:09:48;;;;;;;0.10;0.10;;;19.30;64.90;;;;;;4999543;28;20054;-86
2024/03/21 14:12:13;;;;;;;0.10;0.10;;;19.30;64.30;;;;;;4983484;28;20037;-85
2024/03/21 14:14:39;;;;;;;0.10;0.10;;;19.40;64.10;;;;;;4990404;28;20098;-85
2024/03/21 14:17:05;;;;;;;0.10;0.10;;;19.40;63.70;;;;;;4989498;28;20038;-86
2024/03/21 14:19:30;;;;;;;0.00;0.00;;;19.40;63.70;;;;;;4991671;28;20022;-86
2024/03/21 14:21:56;;;;;;;0.00;0.00;;;19.40;63.00;;;;;;4981413;28;20540;-86
2024/03/21 14:24:21;;;;;;;0.10;0.10;;;19.30;62.80;;;;;;4986258;28;20050;-87
2024/03/21 14:26:47;;;;;;;0.10;0.10;;;19.20;63.90;;;;;;4979819;28;20505;-86
2024/03/21 14:29:13;;;;;;;0.00;0.00;;;19.30;62.80;;;;;;4980708;28;20019;-85
2024/03/21 14:31:38;;;;;;;0.08;0.08;;;19.30;62.90;;;;;;4986141;28;20081;-85
2024/03/21 14:34:06;;;;;;;0.10;0.10;;;19.20;61.80;;;;;;4995101;28;20034;-87
2024/03/21 14:36:33;;;;;;;0.10;0.10;;;19.20;62.40;;;;;;4996562;28;20442;-87
2024/03/21 14:38:59;;;;;;;0.00;0.00;;;19.30;62.70;;;;;;4980232;28;20039;-85
2024/03/21 14:41:24;;;;;;;0.00;0.00;;;19.30;62.50;;;;;;4999897;28;20439;-85
2024/03/21 14:43:50;;;;;;;0.10;0.10;;;19.40;62.80;;;;;;4979568;28;20043;-84
2024/03/21 14:46:17;;;;;;;0.10;0.10;;;19.40;62.00;;;;;;4994181;28;20019;-85
2024/03/21 14:48:44;;;;;;;0.10;0.10;;;19.30;61.60;;;;;;4978170;28;20037;-86
2024/03/21 14:51:09;;;;;;;0.00;0.00;;;19.40;60.70;;;;;;4979358;28;20034;-85
2024/03/21 14:53:35;;;;;;;0.08;0.08;;;19.30;60.80;;;;;;4979582;28;20038;-86
2024/03/21 14:56:01;;;;;;;0.00;0.00;;;19.30;60.10;;;;;;4979357;28;20505;-86
2024/03/21 14:58:28;;;;;;;0.00;0.00;;;19.30;60.60;;;;;;4994604;28;20023;-86
2024/03/21 15:00:54;;;;;;;0.10;0.10;;;19.40;61.00;;;;;;4979110;28;20027;-85
2024/03/21 15:03:19;;;;;;;0.00;0.00;;;19.30;60.40;;;;;;4985431;28;20050;-85
2024/03/21 15:05:45;;;;;;;0.10;0.10;;;19.30;60.20;;;;;;4979122;28;20038;-84
2024/03/21 15:08:11;;;;;;;0.10;0.10;;;19.30;60.90;;;;;;4979235;28;20101;-85
2024/03/21 15:10:37;;;;;;;0.00;0.00;;;19.30;60.70;;;;;;4993734;28;20062;-84
2024/03/21 15:13:02;;;;;;;0.00;0.00;;;19.30;60.00;;;;;;4978715;28;20037;-84
2024/03/21 15:15:28;;;;;;;0.10;0.10;;;19.30;59.40;;;;;;4979421;28;20049;-86
2024/03/21 15:17:54;;;;;;;0.10;0.10;;;19.30;60.10;;;;;;4980443;28;20059;-84
2024/03/21 15:20:19;;;;;;;0.00;0.00;;;19.40;59.50;;;;;;5015265;28;20038;-86
2024/03/21 15:22:46;;;;;;;0.10;0.10;;;19.40;60.00;;;;;;5000253;28;20109;-84
2024/03/21 15:25:11;;;;;;;0.10;0.10;;;19.40;58.60;;;;;;4987117;28;20027;-85
2024/03/21 15:27:44;;;;;;;0.10;0.10;;;19.40;58.00;;;;;;4995424;28;20104;-85
2024/03/21 15:30:11;;;;;;;0.00;0.00;;;19.30;58.10;;;;;;5010950;28;20038;-84
2024/03/21 15:32:37;;;;;;;0.00;0.00;;;19.30;58.10;;;;;;4996899;28;20057;-84
2024/03/21 15:35:03;;;;;;;0.10;0.10;;;19.30;58.60;;;;;;4998561;28;20493;-83
2024/03/21 15:37:29;;;;;;;0.10;0.10;;;19.30;59.20;;;;;;4995640;28;20093;-84
2024/03/21 15:39:55;;;;;;;0.00;0.00;;;19.30;59.20;;;;;;4983211;28;20066;-85
2024/03/21 15:42:21;;;;;;;0.05;0.05;;;19.30;59.00;;;;;;4997883;28;20053;-85
2024/03/21 15:44:48;;;;;;;0.10;0.10;;;19.30;59.40;;;;;;4998031;28;20469;-84
2024/03/21 15:47:15;;;;;;;0.00;0.00;;;19.30;59.50;;;;;;4984534;28;20091;-84
2024/03/21 15:49:41;;;;;;;0.00;0.00;;;19.30;59.40;;;;;;4985653;28;20022;-86
2024/03/21 15:52:06;;;;;;;0.00;0.00;;;19.20;59.00;;;;;;4989655;28;20030;-84
2024/03/21 15:54:32;;;;;;;0.00;0.00;;;19.30;59.70;;;;;;4989408;28;20080;-85
2024/03/21 15:56:57;;;;;;;0.00;0.00;;;19.20;61.40;;;;;;4986971;28;20034;-88
2024/03/21 15:59:23;;;;;;;0.10;0.10;;;19.20;66.00;;;;;;4989129;28;20026;-86
2024/03/21 16:01:49;;;;;;;0.00;0.00;;;19.00;67.70;;;;;;4990206;28;20084;-86
2024/03/21 16:04:14;;;;;;;0.05;0.05;;;18.90;68.30;;;;;;4988626;28;20128;-87
2024/03/21 16:06:40;;;;;;;0.00;0.00;;;18.80;69.40;;;;;;4987035;28;20094;-85
2024/03/21 16:09:07;;;;;;;0.00;0.00;;;18.60;69.30;;;;;;4988068;28;20114;-86
2024/03/21 16:11:36;;;;;;;0.00;0.00;;;18.50;69.80;;;;;;4981711;28;20510;-86
2024/03/21 16:14:01;;;;;;;0.00;0.00;;;18.50;69.90;;;;;;4985147;28;20031;-85
2024/03/21 16:16:27;;;;;;;0.00;0.00;;;18.30;70.90;;;;;;4989371;28;20086;-88
2024/03/21 16:18:52;;;;;;;0.10;0.10;;;18.30;70.80;;;;;;4988713;28;20098;-86
2024/03/21 16:21:18;;;;;;;0.10;0.10;;;18.20;70.90;;;;;;4985185;28;20022;-86
2024/03/21 16:23:44;;;;;;;0.08;0.08;;;18.20;70.80;;;;;;4988819;28;20018;-87
2024/03/21 16:26:11;;;;;;;0.00;0.00;;;18.10;71.10;;;;;;4988081;28;20022;-85
2024/03/21 16:28:36;;;;;;;0.00;0.00;;;18.00;71.00;;;;;;4983170;28;20050;-85
2024/03/21 16:31:02;;;;;;;0.00;0.00;;;17.90;71.20;;;;;;4987482;28;20055;-84
2024/03/21 16:33:28;;;;;;;0.10;0.10;;;17.70;71.50;;;;;;4994094;28;20030;-83
2024/03/21 16:35:54;;;;;;;0.00;0.00;;;17.70;71.80;;;;;;4989369;28;20501;-85
2024/03/21 16:38:24;;;;;;;0.00;0.00;;;17.70;71.60;;;;;;4993697;28;20073;-85
2024/03/21 16:40:50;;;;;;;0.00;0.00;;;17.70;71.80;;;;;;4993829;28;20037;-84
2024/03/21 16:43:16;;;;;;;0.00;0.00;;;17.70;71.50;;;;;;4991909;28;20035;-84
2024/03/21 16:45:41;;;;;;;0.00;0.00;;;17.50;72.00;;;;;;4991786;28;20031;-84
2024/03/21 16:48:07;;;;;;;0.00;0.00;;;17.50;72.40;;;;;;4995142;28;20092;-84
2024/03/21 16:50:33;;;;;;;0.00;0.00;;;17.60;71.60;;;;;;4994123;28;20049;-84
2024/03/21 16:52:59;;;;;;;0.00;0.00;;;17.30;71.70;;;;;;4988735;28;20027;-82
2024/03/21 16:55:25;;;;;;;0.00;0.00;;;17.30;72.00;;;;;;4993345;28;20100;-83
2024/03/21 16:57:54;;;;;;;0.00;0.00;;;17.30;71.90;;;;;;4980145;28;20031;-82
2024/03/21 17:00:26;;;;;;;0.00;0.00;;;17.20;71.80;;;;;;5004546;28;20530;-81
2024/03/21 17:02:52;;;;;;;0.00;0.00;;;17.20;72.30;;;;;;4980288;28;20121;-83
2024/03/21 17:05:17;;;;;;;0.10;0.10;;;17.00;72.50;;;;;;4998892;28;20031;-83
2024/03/21 17:07:43;;;;;;;0.00;0.00;;;17.00;72.70;;;;;;4987619;28;20084;-82
2024/03/21 17:10:18;;;;;;;0.00;0.00;;;16.90;72.60;;;;;;4995474;28;20030;-85
2024/03/21 17:12:43;;;;;;;0.00;0.00;;;16.90;72.70;;;;;;4994075;28;20019;-85
2024/03/21 17:15:09;;;;;;;0.00;0.00;;;16.90;72.60;;;;;;4986514;28;20038;-83
2024/03/21 17:17:38;;;;;;;0.00;0.00;;;16.80;72.60;;;;;;4992883;28;20209;-85
2024/03/21 17:20:17;;;;;;;0.03;0.03;;;16.80;72.80;;;;;;4987485;28;20042;-87
2024/03/21 17:22:44;;;;;;;0.00;0.00;;;16.60;73.00;;;;;;4984141;28;20025;-82
2024/03/21 17:25:10;;;;;;;0.00;0.00;;;16.50;73.60;;;;;;4985496;28;20034;-85
2024/03/21 17:27:35;;;;;;;0.00;0.00;;;16.40;73.60;;;;;;4986341;28;20189;-85
2024/03/21 17:30:02;;;;;;;0.00;0.00;;;16.20;74.30;;;;;;4988472;28;20093;-87
2024/03/21 17:32:28;;;;;;;0.00;0.00;;;16.00;74.70;;;;;;4990222;28;20051;-84
2024/03/21 17:34:54;;;;;;;0.00;0.00;;;15.90;75.40;;;;;;4991675;28;20042;-87
2024/03/21 17:37:20;;;;;;;0.00;0.00;;;15.80;75.50;;;;;;4988805;28;20026;-86
2024/03/21 17:39:46;;;;;;;0.10;0.10;;;15.80;75.70;;;;;;4991826;28;20034;-88
2024/03/21 17:42:12;;;;;;;0.00;0.00;;;15.70;75.80;;;;;;5010889;28;20042;-85
2024/03/21 17:44:38;;;;;;;0.00;0.00;;;15.70;75.80;;;;;;4995516;28;20034;-87
2024/03/21 17:47:04;;;;;;;0.00;0.00;;;15.70;76.00;;;;;;4984216;28;20058;-87
2024/03/21 17:49:32;;;;;;;0.00;0.00;;;15.80;75.60;;;;;;4990701;28;20560;-86
2024/03/21 17:51:58;;;;;;;0.00;0.00;;;15.80;75.60;;;;;;4994169;28;20089;-87
2024/03/21 17:54:26;;;;;;;0.00;0.00;;;15.70;75.70;;;;;;4994221;28;20026;-86
2024/03/21 17:56:52;;;;;;;0.00;0.00;;;15.60;75.80;;;;;;4995429;28;20023;-87
2024/03/21 17:59:18;;;;;;;0.00;0.00;;;15.40;76.10;;;;;;4990145;28;20125;-87
2024/03/21 18:01:49;;;;;;;0.00;0.00;;;15.30;76.20;;;;;;4986858;28;20085;-86
2024/03/21 18:04:15;;;;;;;0.00;0.00;;;15.20;76.40;;;;;;4989276;28;20027;-83
2024/03/21 18:06:41;;;;;;;0.00;0.00;;;15.00;76.70;;;;;;4994174;28;20032;-85
2024/03/21 18:09:06;;;;;;;0.00;0.00;;;14.80;77.40;;;;;;4989028;28;20027;-84
2024/03/21 18:11:32;;;;;;;0.10;0.10;;;14.80;77.50;;;;;;4987431;28;20033;-84
2024/03/21 18:13:58;;;;;;;0.00;0.00;;;14.80;77.30;;;;;;4985920;28;20031;-84
2024/03/21 18:16:26;;;;;;;0.00;0.00;;;14.70;77.80;;;;;;4984331;28;20030;-86
2024/03/21 18:18:52;;;;;;;0.00;0.00;;;14.70;77.80;;;;;;4986573;28;20041;-85